Time;durP1;ratioP1;P1;durP2;ratioP2;P2;SDS_P1;SDS_P2;PMS_P1;PMS_P2;Temp;Humidity;BMP_temperature;BMP_pressure;BME280_temperature;BME280_humidity;BME280_pressure;Samples;Min_cycle;Max_cycle;Signal;HPM_P1;HPM_P2
2022/01/20 00:02:03;;;;;;;;;35.75;33.00;;;;;7.08;82.67;102146.75;5124920;27;45397;-83
2022/01/20 00:04:50;;;;;;;;;32.25;32.25;;;;;7.06;82.75;102151.88;5128194;27;45493;-81
2022/01/20 00:07:42;;;;;;;;;43.00;35.00;;;;;7.41;83.17;102215.47;5134814;27;46424;-84
2022/01/20 00:26:25;;;;;;;;;49.50;42.00;;;;;7.17;82.44;102217.00;5124635;27;45246;-82
2022/01/20 00:28:56;;;;;;;;;40.25;36.25;;;;;6.84;83.27;102154.41;5143027;27;45431;-82
2022/01/20 00:33:51;;;;;;;;;36.00;32.75;;;;;6.99;82.68;102180.41;5141113;27;45484;-83
2022/01/20 00:38:43;;;;;;;;;32.25;28.50;;;;;7.09;82.88;102200.94;5119630;27;45280;-83
2022/01/20 00:41:14;;;;;;;;;33.25;31.00;;;;;7.00;82.24;102190.06;5122233;27;45428;-82
2022/01/20 00:43:41;;;;;;;;;34.50;33.50;;;;;6.84;83.33;102159.63;5140339;27;45365;-83
2022/01/20 00:46:06;;;;;;;;;36.25;35.00;;;;;6.89;82.96;102168.59;5141032;27;45264;-82
2022/01/20 00:48:32;;;;;;;;;33.50;28.50;;;;;6.69;82.34;102145.84;5140316;27;45372;-82
2022/01/20 00:50:57;;;;;;;;;29.00;26.00;;;;;6.79;83.15;102171.59;5140316;27;45360;-82
2022/01/20 00:53:23;;;;;;;;;38.25;32.25;;;;;7.00;82.96;102206.66;5138449;27;45521;-82
2022/01/20 00:55:48;;;;;;;;;34.50;29.00;;;;;6.68;83.47;102154.50;5140749;27;45303;-82
2022/01/20 00:58:13;;;;;;;;;34.50;31.25;;;;;6.78;82.48;102177.69;5140437;27;46613;-82
2022/01/20 01:00:39;;;;;;;;;25.25;25.25;;;;;6.84;83.14;102196.31;5140270;27;45203;-82
2022/01/20 01:03:04;;;;;;;;;29.50;25.25;;;;;6.88;82.31;102195.59;5138470;27;45341;-82
2022/01/20 01:05:30;;;;;;;;;28.25;26.00;;;;;6.60;81.71;102162.00;5139587;27;45300;-83
2022/01/20 01:07:57;;;;;;;;;24.00;22.25;;;;;6.81;82.80;102206.66;5126543;27;45362;-81
2022/01/20 01:10:28;;;;;;;;;21.25;20.25;;;;;6.70;82.40;102190.44;5119730;27;45263;-82
2022/01/20 01:13:09;;;;;;;;;26.00;24.00;;;;;6.83;81.71;102218.97;5119447;27;45238;-81
2022/01/20 01:15:39;;;;;;;;;20.75;19.00;;;;;6.82;82.03;102219.81;5135077;27;45469;-82
2022/01/20 01:23:33;;;;;;;;;21.50;19.00;;;;;6.42;80.92;102175.16;5140720;27;45209;-81
2022/01/20 01:26:01;;;;;;;;;20.00;18.00;;;;;6.62;81.23;102223.22;5128349;27;45515;-82
2022/01/20 01:28:29;;;;;;;;;31.25;22.25;;;;;6.48;81.56;102209.47;5120935;27;46223;-84
2022/01/20 01:33:29;;;;;;;;;22.00;17.75;;;;;6.29;80.89;102192.00;5119344;27;45270;-81
2022/01/20 01:35:57;;;;;;;;;17.75;16.25;;;;;6.28;80.71;102208.53;5134150;27;45390;-82
2022/01/20 01:38:35;;;;;;;;;19.00;17.50;;;;;6.29;80.81;102206.78;5139727;27;46212;-81
2022/01/20 01:41:07;;;;;;;;;18.75;16.00;;;;;6.50;80.48;102254.94;5139810;27;45215;-82
2022/01/20 01:43:33;;;;;;;;;21.50;21.00;;;;;6.33;81.31;102226.16;5139086;27;45276;-82
2022/01/20 01:46:00;;;;;;;;;19.00;19.00;;;;;6.35;80.98;102232.38;5137884;27;45357;-80
2022/01/20 01:48:26;;;;;;;;;19.00;16.75;;;;;6.28;81.16;102223.31;5139173;27;45317;-81
2022/01/20 01:50:52;;;;;;;;;19.00;19.00;;;;;6.44;80.44;102256.38;5138675;27;45381;-81
2022/01/20 01:53:18;;;;;;;;;15.50;15.50;;;;;6.07;80.99;102214.44;5139858;27;45241;-81
2022/01/20 01:55:43;;;;;;;;;21.50;19.75;;;;;6.07;80.69;102225.78;5138301;27;45421;-82
2022/01/20 01:58:09;;;;;;;;;19.00;19.00;;;;;6.09;80.70;102234.63;5138849;27;45339;-81
2022/01/20 02:00:35;;;;;;;;;20.25;17.00;;;;;5.98;81.29;102233.19;5139950;27;45638;-81
2022/01/20 02:03:00;;;;;;;;;16.00;15.75;;;;;6.26;81.28;102283.44;5139711;27;45254;-83
2022/01/20 02:05:26;;;;;;;;;11.00;11.00;;;;;6.26;81.45;102286.06;5139072;27;45445;-79
2022/01/20 02:21:01;;;;;;;;;22.25;16.50;;;;;6.15;79.97;102299.44;5122285;27;45179;-83
2022/01/20 02:23:27;;;;;;;;;12.50;12.50;;;;;6.16;80.45;102309.97;5123057;27;45227;-86
2022/01/20 02:25:53;;;;;;;;;16.00;12.00;;;;;6.14;80.10;102295.00;5122947;27;45232;-82
2022/01/20 02:28:19;;;;;;;;;10.25;10.00;;;;;5.90;80.19;102263.25;5124613;27;45544;-82
2022/01/20 02:30:44;;;;;;;;;20.00;17.00;;;;;5.94;80.16;102289.66;5124977;27;45561;-81
2022/01/20 02:33:14;;;;;;;;;20.75;16.50;;;;;6.09;79.99;102317.44;5118914;27;45317;-82
2022/01/20 02:35:45;;;;;;;;;18.50;13.75;;;;;5.73;80.04;102265.00;5149438;27;45209;-81
2022/01/20 02:45:49;;;;;;;;;15.00;12.25;;;;;5.79;79.89;102273.16;5122218;27;45415;-82
2022/01/20 02:48:15;;;;;;;;;17.00;14.25;;;;;5.85;79.92;102288.25;5122697;27;45471;-83
2022/01/20 02:50:40;;;;;;;;;19.00;14.50;;;;;5.77;79.51;102263.44;5129478;27;45368;-84
2022/01/20 02:53:06;;;;;;;;;15.00;12.50;;;;;5.75;79.58;102259.84;5142912;27;45172;-82
2022/01/20 02:55:31;;;;;;;;;16.25;15.00;;;;;5.66;79.22;102249.81;5142462;27;45320;-83
2022/01/20 02:57:57;;;;;;;;;15.00;12.00;;;;;5.67;78.55;102252.50;5140591;27;45416;-81
2022/01/20 03:00:22;;;;;;;;;11.50;11.25;;;;;5.73;79.38;102262.38;5142436;27;45440;-84
2022/01/20 03:02:49;;;;;;;;;13.50;12.00;;;;;5.66;78.86;102257.66;5143309;27;45266;-86
2022/01/20 03:05:15;;;;;;;;;9.00;9.00;;;;;5.71;78.93;102267.53;5145165;27;45414;-82
2022/01/20 03:07:40;;;;;;;;;12.25;10.25;;;;;5.81;78.87;102305.53;5146434;27;45545;-86
2022/01/20 03:10:07;;;;;;;;;19.00;14.00;;;;;5.80;79.30;102301.13;5144827;27;45278;-82
2022/01/20 03:12:33;;;;;;;;;19.25;13.75;;;;;5.49;78.39;102245.41;5143046;27;45320;-82
2022/01/20 03:14:59;;;;;;;;;11.25;10.00;;;;;5.69;78.52;102290.09;5142081;27;45330;-82
2022/01/20 03:17:24;;;;;;;;;18.00;16.00;;;;;5.52;78.84;102275.25;5134361;27;45418;-82
2022/01/20 03:19:50;;;;;;;;;12.00;10.25;;;;;5.55;78.69;102291.09;5122214;27;45242;-81
2022/01/20 03:22:15;;;;;;;;;19.25;12.75;;;;;5.52;78.99;102280.47;5139029;27;45475;-82
2022/01/20 03:24:41;;;;;;;;;15.50;12.00;;;;;5.47;79.07;102287.16;5141985;27;45470;-82
2022/01/20 03:27:07;;;;;;;;;14.75;12.75;;;;;5.69;79.05;102331.03;5126515;27;45318;-82
2022/01/20 03:29:32;;;;;;;;;12.00;12.00;;;;;5.66;78.66;102339.59;5120640;27;45927;-79
2022/01/20 03:31:58;;;;;;;;;13.00;11.25;;;;;5.54;78.84;102317.16;5120934;27;45376;-82
2022/01/20 03:34:23;;;;;;;;;16.50;14.00;;;;;5.22;78.85;102260.56;5121003;27;45262;-83
2022/01/20 03:36:50;;;;;;;;;10.75;9.50;;;;;5.58;78.03;102334.78;5120754;27;45320;-81
2022/01/20 03:39:15;;;;;;;;;20.25;13.50;;;;;5.35;78.70;102295.25;5120604;27;45415;-82
2022/01/20 03:41:41;;;;;;;;;13.50;8.00;;;;;5.53;77.82;102331.94;5138703;27;45478;-83
2022/01/20 03:44:07;;;;;;;;;9.50;7.00;;;;;5.24;77.45;102287.66;5143833;27;45191;-85
2022/01/20 03:46:33;;;;;;;;;10.25;10.25;;;;;5.13;77.93;102259.25;5142749;27;45482;-84
2022/01/20 03:49:09;;;;;;;;;8.00;6.25;;;;;5.48;78.22;102316.81;5139770;27;45615;-83
2022/01/20 03:51:34;;;;;;;;;13.50;9.75;;;;;5.30;77.97;102303.66;5132526;27;45248;-86
2022/01/20 03:54:00;;;;;;;;;17.25;10.25;;;;;5.05;78.39;102272.72;5141695;27;45269;-83
2022/01/20 03:56:26;;;;;;;;;12.00;8.00;;;;;5.34;77.80;102316.09;5141440;27;46099;-82
2022/01/20 03:58:52;;;;;;;;;9.00;9.00;;;;;5.09;78.28;102283.41;5142684;27;45220;-83
2022/01/20 04:01:19;;;;;;;;;13.75;10.25;;;;;5.08;77.93;102283.31;5141159;27;45275;-81
2022/01/20 04:03:44;;;;;;;;;9.50;8.50;;;;;5.30;77.74;102329.78;5142117;27;45308;-80
2022/01/20 04:06:11;;;;;;;;;9.50;6.75;;;;;5.32;78.57;102333.41;5141736;27;45421;-83
2022/01/20 04:08:42;;;;;;;;;12.50;9.00;;;;;5.07;78.39;102298.09;5133765;27;45534;-83
2022/01/20 04:11:10;;;;;;;;;10.25;7.50;;;;;5.39;78.27;102351.19;5130832;27;45244;-83
2022/01/20 04:13:36;;;;;;;;;7.25;7.25;;;;;5.26;78.21;102336.56;5143911;27;45449;-85
2022/01/20 04:16:17;;;;;;;;;15.00;10.75;;;;;5.36;78.06;102351.94;5142837;27;45544;-81
2022/01/20 04:18:52;;;;;;;;;11.25;7.50;;;;;5.35;77.68;102360.59;5142616;27;45210;-81
2022/01/20 04:21:22;;;;;;;;;12.25;9.00;;;;;5.10;77.98;102333.94;5130897;27;45222;-82
2022/01/20 04:23:47;;;;;;;;;16.25;8.50;;;;;5.22;78.34;102360.75;5120882;27;45321;-82
2022/01/20 04:26:13;;;;;;;;;13.00;11.50;;;;;5.04;78.00;102331.91;5120180;27;46060;-86
2022/01/20 04:28:38;;;;;;;;;10.50;7.00;;;;;5.05;78.46;102327.56;5121417;27;45259;-85
2022/01/20 04:31:05;;;;;;;;;16.00;10.25;;;;;5.06;78.68;102332.88;5125862;27;45443;-83
2022/01/20 04:33:31;;;;;;;;;11.50;10.75;;;;;4.82;78.54;102301.06;5141001;27;45447;-83
2022/01/20 04:35:57;;;;;;;;;11.50;9.00;;;;;5.21;78.46;102364.19;5123915;27;45356;-82
2022/01/20 04:38:22;;;;;;;;;15.00;9.50;;;;;4.92;78.58;102312.00;5142519;27;45378;-82
2022/01/20 04:40:48;;;;;;;;;16.00;10.75;;;;;5.08;78.79;102352.13;5130750;27;45559;-80
2022/01/20 04:43:13;;;;;;;;;13.75;8.50;;;;;4.98;78.24;102343.69;5120790;27;45194;-82
2022/01/20 04:45:46;;;;;;;;;13.00;11.50;;;;;4.96;78.76;102348.84;5101944;27;47471;-82
2022/01/20 04:58:53;;;;;;;;;16.50;12.75;;;;;4.78;78.81;102346.09;5119826;27;45235;-82
2022/01/20 05:01:19;;;;;;;;;14.25;10.00;;;;;4.67;78.49;102310.66;5120681;27;45923;-82
2022/01/20 05:03:45;;;;;;;;;10.25;8.75;;;;;4.97;78.58;102361.09;5123943;27;45442;-82
2022/01/20 05:06:11;;;;;;;;;12.00;11.00;;;;;5.00;78.67;102356.03;5133572;27;45327;-83
2022/01/20 05:08:36;;;;;;;;;14.25;10.00;;;;;4.80;78.34;102323.59;5130694;27;45519;-81
2022/01/20 05:11:04;;;;;;;;;11.50;9.50;;;;;5.07;78.19;102367.72;5119702;27;45375;-82
2022/01/20 05:13:35;;;;;;;;;15.50;11.00;;;;;4.85;78.24;102339.53;5128108;27;45421;-81
2022/01/20 05:16:02;;;;;;;;;13.25;7.50;;;;;5.06;78.49;102376.38;5140020;27;45443;-83
2022/01/20 05:18:28;;;;;;;;;13.25;12.00;;;;;4.96;78.25;102358.41;5140158;27;45427;-85
2022/01/20 05:20:54;;;;;;;;;12.00;12.00;;;;;4.92;78.22;102352.09;5140110;27;45339;-85
2022/01/20 05:23:19;;;;;;;;;10.25;10.25;;;;;4.86;78.03;102339.59;5123100;27;45809;-81
2022/01/20 05:25:44;;;;;;;;;13.75;12.50;;;;;4.87;77.98;102343.13;5122191;27;45364;-81
2022/01/20 05:28:10;;;;;;;;;10.75;10.75;;;;;4.82;78.09;102341.94;5119724;27;45345;-83
2022/01/20 05:30:35;;;;;;;;;14.50;13.50;;;;;4.85;78.00;102336.91;5119887;27;45158;-83
2022/01/20 05:33:02;;;;;;;;;14.25;10.75;;;;;4.90;77.96;102353.72;5131780;27;45437;-81
2022/01/20 05:35:28;;;;;;;;;19.00;13.25;;;;;4.63;78.36;102319.13;5119502;27;45212;-84
2022/01/20 05:37:54;;;;;;;;;13.75;9.25;;;;;4.76;78.05;102354.66;5125835;27;45382;-83
2022/01/20 05:40:20;;;;;;;;;10.50;10.00;;;;;4.94;77.70;102399.19;5129819;27;45270;-82
2022/01/20 05:42:46;;;;;;;;;9.25;7.50;;;;;4.86;77.51;102365.72;5128139;27;45435;-84
2022/01/20 05:45:13;;;;;;;;;10.75;10.75;;;;;4.81;77.08;102361.94;5139494;27;45464;-86
2022/01/20 05:47:44;;;;;;;;;5.00;5.00;;;;;4.87;76.68;102374.44;5140036;27;45312;-87
2022/01/20 05:50:12;;;;;;;;;13.25;13.25;;;;;4.63;77.08;102350.44;5133198;27;45335;-85
2022/01/20 05:52:41;;;;;;;;;10.00;7.00;;;;;4.73;76.81;102362.31;5102224;27;45536;-85
2022/01/20 05:55:12;;;;;;;;;11.25;10.25;;;;;4.80;76.65;102369.69;5103395;27;47887;-85
2022/01/20 05:57:38;;;;;;;;;10.25;8.00;;;;;4.93;76.64;102410.44;5104559;27;45732;-87
2022/01/20 06:00:06;;;;;;;;;13.50;9.00;;;;;4.82;76.85;102382.00;5122599;27;45321;-84
2022/01/20 06:03:35;;;;;;;;;8.75;6.25;;;;;4.99;76.75;102410.78;5114633;27;45319;-84
2022/01/20 06:05:20;;;;;;;;;10.00;8.25;;;;;4.96;76.36;102408.00;5101386;27;45602;-82
2022/01/20 06:07:45;;;;;;;;;12.75;11.00;;;;;4.77;76.91;102378.25;5101538;27;45337;-84
2022/01/20 06:10:11;;;;;;;;;9.00;9.00;;;;;4.99;76.65;102413.41;5102940;27;45337;-81
2022/01/20 06:12:36;;;;;;;;;13.25;10.00;;;;;4.74;75.95;102375.44;5085767;27;45363;-86
2022/01/20 06:15:02;;;;;;;;;7.75;6.25;;;;;4.67;75.83;102357.66;5103265;27;45338;-82
2022/01/20 06:17:29;;;;;;;;;12.50;10.00;;;;;4.54;76.71;102335.16;5102936;27;45492;-83
2022/01/20 06:19:54;;;;;;;;;10.00;7.00;;;;;4.61;76.17;102352.06;5112592;27;45462;-83
2022/01/20 06:22:20;;;;;;;;;9.00;6.75;;;;;4.83;76.46;102401.16;5107184;27;45218;-81
2022/01/20 06:24:45;;;;;;;;;7.00;6.00;;;;;4.91;76.34;102409.44;5102313;27;45261;-84
2022/01/20 06:27:11;;;;;;;;;6.25;5.75;;;;;4.59;76.25;102364.13;5111972;27;45228;-83
2022/01/20 06:29:36;;;;;;;;;9.50;9.00;;;;;4.71;76.02;102390.94;5103849;27;45192;-82
2022/01/20 06:32:02;;;;;;;;;10.00;6.75;;;;;4.72;76.31;102389.22;5102948;27;45386;-79
2022/01/20 06:34:27;;;;;;;;;6.50;5.50;;;;;4.97;75.88;102431.59;5102779;27;46353;-83
2022/01/20 06:36:53;;;;;;;;;10.00;10.00;;;;;4.89;76.10;102411.97;5087433;27;46054;-79
2022/01/20 06:39:18;;;;;;;;;6.50;6.50;;;;;4.56;75.89;102356.16;5106723;27;45433;-86
2022/01/20 06:41:43;;;;;;;;;5.75;5.75;;;;;4.89;75.81;102425.03;5110293;27;45175;-82
2022/01/20 06:44:09;;;;;;;;;3.00;3.00;;;;;4.89;75.70;102424.13;5087860;27;48195;-83
2022/01/20 06:46:34;;;;;;;;;8.50;8.50;;;;;4.96;75.67;102435.03;5106182;27;45463;-84
2022/01/20 06:49:00;;;;;;;;;8.25;8.00;;;;;4.56;75.57;102377.03;5083120;27;45395;-83
2022/01/20 06:51:25;;;;;;;;;7.50;5.00;;;;;4.69;75.57;102402.09;5103390;27;45301;-83
2022/01/20 06:53:50;;;;;;;;;9.00;6.25;;;;;4.91;75.61;102448.63;5105552;27;45617;-84
2022/01/20 06:56:19;;;;;;;;;1.25;0.00;;;;;4.56;75.64;102385.75;5084556;27;45406;-83
2022/01/20 06:58:44;;;;;;;;;8.75;8.50;;;;;4.50;75.75;102389.69;5088958;27;45453;-83
2022/01/20 07:01:09;;;;;;;;;7.75;5.75;;;;;4.35;75.11;102368.81;5106514;27;45371;-84
2022/01/20 07:03:35;;;;;;;;;8.25;6.75;;;;;4.85;75.49;102467.47;5136391;27;45475;-87
2022/01/20 07:06:00;;;;;;;;;16.50;9.50;;;;;4.85;75.32;102476.19;5129666;27;45250;-85
2022/01/20 07:08:26;;;;;;;;;9.75;9.00;;;;;4.82;75.47;102489.03;5131979;27;45260;-85
2022/01/20 07:10:52;;;;;;;;;11.00;9.75;;;;;4.67;75.51;102469.91;5128729;27;45576;-82
2022/01/20 07:13:17;;;;;;;;;11.75;11.00;;;;;4.80;75.25;102498.50;5145032;27;46172;-83
2022/01/20 07:15:43;;;;;;;;;10.75;9.00;;;;;4.44;75.48;102442.41;5145570;27;45376;-84
2022/01/20 07:18:08;;;;;;;;;6.75;6.25;;;;;4.37;75.50;102428.91;5142377;27;45562;-83
2022/01/20 07:20:33;;;;;;;;;13.00;9.75;;;;;4.76;75.54;102521.75;5130569;27;45350;-85
2022/01/20 07:22:59;;;;;;;;;10.25;10.25;;;;;4.74;75.68;102524.25;5122720;27;45325;-85
2022/01/20 07:25:24;;;;;;;;;6.25;6.25;;;;;4.47;75.34;102480.88;5122736;27;45326;-84
2022/01/20 07:27:50;;;;;;;;;13.50;11.75;;;;;4.67;75.71;102506.44;5121493;27;45395;-85
2022/01/20 07:30:15;;;;;;;;;12.00;11.00;;;;;4.61;75.68;102499.94;5120776;27;45317;-85
2022/01/20 07:32:41;;;;;;;;;8.50;8.50;;;;;4.38;76.46;102465.56;5102299;27;47408;-85
2022/01/20 07:35:07;;;;;;;;;10.50;9.00;;;;;4.76;75.72;102524.34;5121095;27;45384;-87
2022/01/20 07:37:32;;;;;;;;;10.25;9.50;;;;;4.60;75.74;102495.53;5121040;27;45441;-84
2022/01/20 07:39:57;;;;;;;;;3.25;1.00;;;;;4.73;75.69;102493.72;5121694;27;45590;-80
2022/01/20 07:42:23;;;;;;;;;11.33;8.33;;;;;4.90;75.55;102517.31;5137535;27;45492;-82
2022/01/20 07:44:48;;;;;;;;;16.75;13.25;;;;;4.91;75.34;102501.75;5140663;27;45434;-78
2022/01/20 07:47:15;;;;;;;;;14.00;7.50;;;;;4.99;74.99;102505.72;5141077;27;45769;-80
2022/01/20 07:49:40;;;;;;;;;13.50;13.50;;;;;4.91;75.09;102477.34;5141293;27;45373;-81
2022/01/20 07:52:06;;;;;;;;;17.50;15.25;;;;;5.13;74.95;102509.13;5138656;27;45530;-78
2022/01/20 07:54:32;;;;;;;;;12.75;12.00;;;;;5.32;74.95;102529.38;5130514;27;45344;-84
2022/01/20 07:56:57;;;;;;;;;14.50;9.00;;;;;5.40;74.00;102534.25;5131867;27;45935;-83
2022/01/20 07:59:24;;;;;;;;;10.00;9.75;;;;;5.31;73.79;102504.06;5115773;27;46236;-82
2022/01/20 08:01:51;;;;;;;;;14.75;11.50;;;;;5.59;73.80;102511.75;5134193;27;45552;-84
2022/01/20 08:04:17;;;;;;;;;10.00;7.50;;;;;4.99;73.68;102396.00;5121239;27;46787;-84
2022/01/20 08:06:42;;;;;;;;;14.25;13.25;;;;;5.37;73.42;102444.28;5117542;27;45972;-84
2022/01/20 08:09:09;;;;;;;;;11.50;11.50;;;;;5.83;72.74;102522.66;5132767;27;45400;-81
2022/01/20 08:11:34;;;;;;;;;8.75;8.75;;;;;5.95;72.92;102518.13;5132230;27;46183;-83
2022/01/20 08:13:59;;;;;;;;;13.75;9.00;;;;;5.97;72.18;102509.56;5140624;27;45245;-84
2022/01/20 08:16:25;;;;;;;;;18.50;16.00;;;;;5.75;71.92;102459.47;5121203;27;45309;-85
2022/01/20 08:18:53;;;;;;;;;14.50;11.50;;;;;6.08;71.76;102510.13;5143398;27;45232;-84
2022/01/20 08:21:19;;;;;;;;;17.25;12.25;;;;;6.23;71.88;102533.59;5123849;27;47563;-84
2022/01/20 08:23:44;;;;;;;;;13.75;10.50;;;;;5.66;71.11;102424.97;5140856;27;45352;-84
2022/01/20 08:26:09;;;;;;;;;15.75;13.25;;;;;6.15;70.82;102500.91;5140468;27;45531;-84
2022/01/20 08:28:35;;;;;;;;;14.25;10.00;;;;;6.38;71.42;102520.44;5140614;27;45379;-84
2022/01/20 08:31:00;;;;;;;;;12.75;9.75;;;;;6.29;71.50;102505.16;5139891;27;45513;-84
2022/01/20 08:33:26;;;;;;;;;10.75;9.75;;;;;6.36;70.80;102490.66;5137847;27;45331;-81
2022/01/20 08:35:51;;;;;;;;;18.00;14.00;;;;;6.49;70.71;102499.22;5115281;27;45350;-82
2022/01/20 08:38:17;;;;;;;;;15.50;10.50;;;;;6.44;69.77;102476.28;5126850;27;45405;-81
2022/01/20 08:40:43;;;;;;;;;13.50;11.00;;;;;6.75;69.74;102539.88;5139638;27;45320;-83
2022/01/20 08:43:10;;;;;;;;;14.75;10.75;;;;;6.80;69.82;102547.97;5136462;27;45384;-81
2022/01/20 08:45:40;;;;;;;;;14.50;12.50;;;;;6.65;70.45;102513.13;5128467;27;45419;-82
2022/01/20 08:48:05;;;;;;;;;15.25;10.75;;;;;6.88;69.32;102558.81;5140372;27;45498;-80
2022/01/20 08:50:37;;;;;;;;;14.50;11.00;;;;;6.79;69.54;102526.13;5139633;27;45391;-85
2022/01/20 08:53:03;;;;;;;;;15.00;15.00;;;;;7.03;69.18;102562.25;5111459;27;45510;-85
2022/01/20 08:55:28;;;;;;;;;11.50;10.50;;;;;6.75;69.30;102508.44;5124071;27;45279;-82
2022/01/20 08:57:58;;;;;;;;;13.00;11.00;;;;;7.00;69.08;102513.22;5122204;27;45193;-88
2022/01/20 09:00:29;;;;;;;;;11.25;10.25;;;;;7.19;69.05;102508.88;5102539;27;48097;-85
2022/01/20 09:02:55;;;;;;;;;15.00;12.75;;;;;7.17;68.90;102489.56;5119639;27;45200;-86
2022/01/20 09:05:21;;;;;;;;;16.75;12.50;;;;;7.25;67.65;102482.97;5118745;27;45328;-88
2022/01/20 09:07:47;;;;;;;;;13.00;12.50;;;;;7.46;67.65;102512.88;5139362;27;45321;-84
2022/01/20 09:10:19;;;;;;;;;15.75;11.25;;;;;7.77;67.27;102544.06;5121332;27;45495;-86
2022/01/20 09:16:05;;;;;;;;;16.00;12.00;;;;;7.44;66.43;102456.81;5119525;27;45471;-88
2022/01/20 09:18:31;;;;;;;;;14.75;12.50;;;;;7.64;67.01;102481.38;5104184;27;45251;-84
2022/01/20 09:20:56;;;;;;;;;13.75;11.25;;;;;7.32;66.18;102427.38;5114712;27;46952;-86
2022/01/20 09:23:22;;;;;;;;;17.00;12.75;;;;;7.50;66.65;102440.47;5119560;27;45196;-85
2022/01/20 09:25:49;;;;;;;;;9.75;9.75;;;;;8.23;65.79;102561.97;5132275;27;45437;-86
2022/01/20 09:28:15;;;;;;;;;17.75;13.00;;;;;7.99;65.97;102532.84;5123978;27;45380;-84
2022/01/20 09:30:41;;;;;;;;;16.00;14.50;;;;;7.59;66.11;102433.94;5119302;27;46438;-83
2022/01/20 09:33:16;;;;;;;;;12.50;12.25;;;;;7.62;65.88;102452.41;5113164;27;45636;-83
2022/01/20 09:35:43;;;;;;;;;10.50;8.00;;;;;7.75;65.14;102481.88;5121788;27;45328;-85
2022/01/20 09:38:11;;;;;;;;;14.50;12.50;;;;;7.86;66.26;102492.03;5128950;27;45436;-87
2022/01/20 09:40:37;;;;;;;;;9.50;9.50;;;;;8.43;65.83;102597.94;5101898;27;48328;-85
2022/01/20 09:43:07;;;;;;;;;16.75;15.25;;;;;8.31;65.05;102542.22;5109049;27;45247;-88
2022/01/20 09:45:33;;;;;;;;;16.75;13.00;;;;;8.91;64.58;102590.47;5103866;27;45404;-86
2022/01/20 09:48:01;;;;;;;;;17.75;13.25;;;;;9.16;64.14;102591.53;5124308;27;45343;-85
2022/01/20 09:50:27;;;;;;;;;18.50;13.00;;;;;9.16;62.63;102526.69;5103631;27;46943;-89
2022/01/20 09:52:56;;;;;;;;;19.00;14.00;;;;;9.32;61.08;102430.94;5121523;27;45582;-88
2022/01/20 09:55:22;;;;;;;;;18.75;12.50;;;;;9.97;59.86;102449.25;5137458;27;45459;-86
2022/01/20 09:57:48;;;;;;;;;13.25;12.25;;;;;11.11;57.70;102498.97;5114488;27;45493;-83
2022/01/20 10:00:17;;;;;;;;;12.25;11.25;;;;;11.74;56.42;102572.28;5111880;27;46345;-85
2022/01/20 10:02:52;;;;;;;;;13.50;13.50;;;;;11.45;56.32;102527.38;5115512;27;45653;-85
2022/01/20 10:05:54;;;;;;;;;20.50;14.75;;;;;12.36;53.92;102481.72;5119054;27;45328;-86
2022/01/20 10:08:23;;;;;;;;;19.00;13.50;;;;;12.28;53.76;102501.75;5115499;27;45278;-87
2022/01/20 10:10:56;;;;;;;;;11.50;11.50;;;;;13.65;51.91;102537.13;5118906;27;46102;-85
2022/01/20 10:13:24;;;;;;;;;16.00;13.25;;;;;14.15;49.17;102487.03;5118837;27;45367;-87
2022/01/20 10:16:08;;;;;;;;;14.75;12.50;;;;;14.78;48.33;102586.41;5118332;27;45294;-87
2022/01/20 10:18:54;;;;;;;;;17.50;15.50;;;;;13.63;49.83;102525.59;5119302;27;45313;-87
2022/01/20 10:21:34;;;;;;;;;15.50;12.75;;;;;13.42;50.64;102550.69;5117471;27;46119;-87
2022/01/20 10:24:11;;;;;;;;;21.50;17.75;;;;;13.24;51.62;102601.41;5118657;27;45413;-88
2022/01/20 10:26:37;;;;;;;;;17.00;15.00;;;;;12.87;52.74;102610.97;5117284;27;45359;-87
2022/01/20 10:29:12;;;;;;;;;17.25;16.00;;;;;12.34;53.06;102557.44;5117323;27;45299;-87
2022/01/20 10:31:49;;;;;;;;;16.00;15.00;;;;;12.28;53.27;102594.22;5099638;27;47081;-87
2022/01/20 10:34:34;;;;;;;;;13.00;11.00;;;;;12.40;54.02;102620.16;5118651;27;45231;-87
2022/01/20 10:37:02;;;;;;;;;11.75;10.00;;;;;11.64;54.23;102520.94;5100295;27;45271;-88
2022/01/20 10:39:33;;;;;;;;;18.75;15.00;;;;;11.85;54.41;102587.66;5122043;27;44759;-87
2022/01/20 10:42:20;;;;;;;;;14.25;10.75;;;;;11.79;55.70;102587.41;5105052;27;47133;-87
2022/01/20 10:44:52;;;;;;;;;16.50;13.00;;;;;11.97;54.70;102609.16;5125482;27;45377;-88
2022/01/20 10:47:26;;;;;;;;;17.00;17.00;;;;;12.13;54.79;102630.78;5106605;27;45330;-87
2022/01/20 10:49:52;;;;;;;;;15.00;11.25;;;;;11.46;53.89;102529.16;5125864;27;45581;-87
2022/01/20 10:52:22;;;;;;;;;18.25;15.00;;;;;11.80;54.33;102551.38;5131876;27;45261;-85
2022/01/20 10:54:50;;;;;;;;;12.00;12.00;;;;;11.66;54.05;102512.22;5120402;27;45320;-86
2022/01/20 10:57:16;;;;;;;;;11.25;11.25;;;;;12.47;52.95;102630.97;5122210;27;45235;-85
2022/01/20 10:59:51;;;;;;;;;13.00;13.00;;;;;11.83;53.54;102535.63;5121739;27;45467;-84
2022/01/20 11:02:19;;;;;;;;;12.00;10.25;;;;;12.03;53.23;102550.34;5102947;27;47133;-88
2022/01/20 11:04:45;;;;;;;;;10.00;9.25;;;;;12.34;53.09;102635.81;5121724;27;45226;-88
2022/01/20 11:07:11;;;;;;;;;15.75;13.75;;;;;12.31;53.10;102597.00;5122162;27;45308;-87
2022/01/20 11:09:41;;;;;;;;;16.50;13.00;;;;;13.38;50.30;102569.13;5113858;27;45323;-88
2022/01/20 11:12:09;;;;;;;;;15.00;12.75;;;;;14.09;48.39;102526.63;5123622;27;48174;-87
2022/01/20 11:14:35;;;;;;;;;12.00;10.00;;;;;14.63;45.92;102504.81;5143928;27;45429;-88
2022/01/20 11:17:03;;;;;;;;;11.25;7.00;;;;;15.36;46.70;102593.72;5142934;27;45245;-87
2022/01/20 11:19:35;;;;;;;;;9.25;8.50;;;;;14.81;46.24;102544.06;5124884;27;45602;-90
2022/01/20 11:22:11;;;;;;;;;6.00;6.00;;;;;14.39;46.37;102457.44;5143937;27;45405;-87
2022/01/20 11:24:37;;;;;;;;;7.50;7.50;;;;;14.26;45.98;102492.53;5135261;27;45465;-87
2022/01/20 11:27:06;;;;;;;;;11.75;6.50;;;;;14.69;46.91;102594.19;5123450;27;45308;-88
2022/01/20 11:29:42;;;;;;;;;8.00;8.00;;;;;14.64;47.36;102588.81;5123487;27;45332;-88
2022/01/20 11:32:35;;;;;;;;;13.75;7.00;;;;;14.26;48.05;102554.41;5132348;27;46511;-88
2022/01/20 11:35:06;;;;;;;;;10.50;9.00;;;;;13.46;48.37;102487.25;5101749;27;45397;-88
2022/01/20 11:37:35;;;;;;;;;12.75;11.50;;;;;13.71;49.22;102589.34;5126888;27;45305;-88
2022/01/20 11:40:19;;;;;;;;;7.00;5.75;;;;;13.14;49.54;102534.06;5105151;27;45388;-88
2022/01/20 11:43:05;;;;;;;;;7.75;6.50;;;;;12.23;49.76;102411.78;5121965;27;45478;-86
2022/01/20 11:45:39;;;;;;;;;11.50;7.25;;;;;12.03;50.51;102441.16;5121457;27;45430;-87
2022/01/20 11:48:31;;;;;;;;;10.25;6.75;;;;;12.46;49.95;102552.50;5106714;27;45354;-88
2022/01/20 11:51:05;;;;;;;;;5.00;5.00;;;;;11.95;50.30;102497.28;5122067;27;45320;-88
2022/01/20 11:53:31;;;;;;;;;6.00;6.00;;;;;12.61;50.59;102606.66;5107822;27;48103;-87
2022/01/20 11:55:57;;;;;;;;;10.50;7.00;;;;;12.49;50.70;102621.31;5112050;27;45862;-87
2022/01/20 11:58:25;;;;;;;;;8.00;5.75;;;;;11.93;50.91;102549.16;5124119;27;45875;-86
2022/01/20 12:01:04;;;;;;;;;10.75;4.75;;;;;11.99;50.87;102553.72;5111989;27;45624;-86
2022/01/20 12:03:31;;;;;;;;;5.00;4.00;;;;;12.14;50.67;102567.41;5126888;27;45690;-86
2022/01/20 12:06:12;;;;;;;;;7.25;3.25;;;;;12.39;49.92;102573.44;5113057;27;45353;-86
2022/01/20 12:08:50;;;;;;;;;6.50;4.50;;;;;12.52;49.87;102616.13;5102612;27;45377;-86
2022/01/20 12:11:16;;;;;;;;;6.00;4.75;;;;;12.25;49.72;102555.41;5111949;27;45354;-86
2022/01/20 12:13:54;;;;;;;;;4.25;4.00;;;;;12.31;49.83;102570.56;5142034;27;45466;-86
2022/01/20 12:16:24;;;;;;;;;4.50;3.50;;;;;12.43;49.84;102562.09;5143515;27;45372;-84
2022/01/20 12:18:59;;;;;;;;;8.75;6.50;;;;;12.76;49.49;102591.25;5141766;27;45282;-86
2022/01/20 12:21:26;;;;;;;;;8.50;6.50;;;;;13.07;48.27;102622.97;5123173;27;45408;-86
2022/01/20 12:23:54;;;;;;;;;10.25;4.75;;;;;13.05;49.52;102592.03;5123548;27;47383;-86
2022/01/20 12:26:20;;;;;;;;;4.00;4.00;;;;;12.75;49.16;102552.41;5124995;27;45787;-87
2022/01/20 12:28:46;;;;;;;;;5.00;4.00;;;;;13.04;48.46;102612.31;5124754;27;45299;-87